createdAt,value
2023-03-11T00:01:46.661Z,97667.61
2023-03-11T00:04:14.542Z,97665.33
2023-03-11T00:06:42.363Z,97664.56
2023-03-11T00:09:10.331Z,97667.20
2023-03-11T00:11:38.074Z,97667.13
2023-03-11T00:14:05.836Z,97668.86
2023-03-11T00:16:33.644Z,97666.12
2023-03-11T00:19:01.427Z,97668.32
2023-03-11T00:21:29.258Z,97666.57
2023-03-11T00:24:01.030Z,97664.80
2023-03-11T00:26:28.743Z,97660.85
2023-03-11T00:28:56.555Z,97658.34
2023-03-11T00:31:26.491Z,97654.16
2023-03-11T00:33:54.976Z,97650.77
2023-03-11T00:36:24.389Z,97650.98
2023-03-11T00:38:52.104Z,97644.89
2023-03-11T00:41:19.862Z,97643.80
2023-03-11T00:43:47.724Z,97640.07
2023-03-11T00:46:15.486Z,97633.05
2023-03-11T00:48:43.211Z,97629.81
2023-03-11T00:51:14.732Z,97631.93
2023-03-11T00:53:43.967Z,97626.30
2023-03-11T00:56:14.239Z,97625.14
2023-03-11T00:58:45.645Z,97622.62
2023-03-11T01:01:17.398Z,97625.27
2023-03-11T01:03:45.289Z,97628.86
2023-03-11T01:06:13.721Z,97626.21
2023-03-11T01:08:41.665Z,97626.02
2023-03-11T01:11:10.052Z,97624.52
2023-03-11T01:13:40.230Z,97621.34
2023-03-11T01:16:09.346Z,97624.13
2023-03-11T01:18:37.209Z,97622.22
2023-03-11T01:21:05.312Z,97616.88
2023-03-11T01:23:33.539Z,97617.20
2023-03-11T01:26:01.312Z,97616.12
2023-03-11T01:28:29.067Z,97614.42
2023-03-11T01:31:00.216Z,97613.09
2023-03-11T01:33:29.213Z,97618.16
2023-03-11T01:35:57.071Z,97615.92
2023-03-11T01:38:28.603Z,97611.07
2023-03-11T01:40:56.612Z,97609.06
2023-03-11T01:43:43.222Z,97607.14
2023-03-11T01:46:28.086Z,97604.70
2023-03-11T01:48:56.516Z,97606.14
2023-03-11T01:51:38.526Z,97605.24
2023-03-11T01:54:11.794Z,97600.75
2023-03-11T01:56:42.011Z,97598.48
2023-03-11T01:59:13.654Z,97593.69
2023-03-11T02:02:10.191Z,97592.49
2023-03-11T02:04:40.442Z,97592.60
2023-03-11T02:07:10.114Z,97591.73
2023-03-11T02:09:38.767Z,97592.84
2023-03-11T02:12:08.898Z,97589.21
2023-03-11T02:14:41.975Z,97586.51
2023-03-11T02:17:10.079Z,97587.35
2023-03-11T02:19:49.839Z,97586.52
2023-03-11T02:22:17.562Z,97585.26
2023-03-11T02:24:54.209Z,97585.89
2023-03-11T02:27:23.825Z,97581.78
2023-03-11T02:29:52.136Z,97583.31
2023-03-11T02:32:20.685Z,97578.19
2023-03-11T02:34:48.538Z,97577.31
2023-03-11T02:37:17.414Z,97575.84
2023-03-11T02:39:54.845Z,97575.29
2023-03-11T02:42:31.451Z,97578.87
2023-03-11T02:45:10.947Z,97576.35
2023-03-11T02:47:41.061Z,97580.08
2023-03-11T02:50:13.773Z,97581.61
2023-03-11T02:52:42.090Z,97585.77
2023-03-11T02:55:11.941Z,97585.71
2023-03-11T02:57:40.697Z,97580.26
2023-03-11T03:00:14.554Z,97574.60
2023-03-11T03:02:45.616Z,97567.27
2023-03-11T03:05:13.991Z,97566.23
2023-03-11T03:07:42.121Z,97570.83
2023-03-11T03:10:10.779Z,97572.07
2023-03-11T03:12:38.551Z,97568.30
2023-03-11T03:15:07.017Z,97567.91
2023-03-11T03:17:34.860Z,97569.03
2023-03-11T03:20:05.880Z,97566.69
2023-03-11T03:22:33.735Z,97561.01
2023-03-11T03:25:01.509Z,97561.48
2023-03-11T03:27:31.420Z,97563.58
2023-03-11T03:29:59.367Z,97564.65
2023-03-11T03:32:27.429Z,97565.30
2023-03-11T03:34:59.068Z,97560.33
2023-03-11T03:37:35.881Z,97560.27
2023-03-11T03:40:08.828Z,97562.73
2023-03-11T03:42:38.152Z,97562.53
2023-03-11T03:45:08.015Z,97561.60
2023-03-11T03:47:36.454Z,97563.52
2023-03-11T03:50:06.775Z,97555.85
2023-03-11T03:52:38.857Z,97554.22
2023-03-11T03:55:07.115Z,97551.41
2023-03-11T03:57:35.015Z,97550.24
2023-03-11T04:00:04.630Z,97554.75
2023-03-11T04:02:41.856Z,97552.19
2023-03-11T04:05:15.258Z,97547.72
2023-03-11T04:07:43.818Z,97546.80
2023-03-11T04:10:14.177Z,97545.19
2023-03-11T04:12:42.239Z,97539.08
2023-03-11T04:15:11.134Z,97536.16
2023-03-11T04:17:39.636Z,97528.69
2023-03-11T04:20:10.343Z,97524.91
2023-03-11T04:22:38.212Z,97532.03
2023-03-11T04:25:06.792Z,97534.05
2023-03-11T04:27:34.764Z,97534.80
2023-03-11T04:30:03.517Z,97536.08
2023-03-11T04:32:32.008Z,97536.29
2023-03-11T04:35:00.208Z,97537.38
2023-03-11T04:37:30.045Z,97536.95
2023-03-11T04:39:58.355Z,97535.90
2023-03-11T04:42:27.245Z,97542.75
2023-03-11T04:44:55.599Z,97539.64
2023-03-11T04:47:23.932Z,97541.99
2023-03-11T04:49:52.277Z,97544.04
2023-03-11T04:52:20.092Z,97543.66
2023-03-11T04:54:48.335Z,97540.69
2023-03-11T04:57:16.366Z,97543.31
2023-03-11T04:59:45.018Z,97545.92
2023-03-11T05:02:13.130Z,97545.27
2023-03-11T05:04:43.573Z,97548.94
2023-03-11T05:07:11.344Z,97549.06
2023-03-11T05:09:39.314Z,97550.10
2023-03-11T05:12:12.221Z,97552.73
2023-03-11T05:14:40.766Z,97550.62
2023-03-11T05:17:10.538Z,97549.33
2023-03-11T05:19:38.384Z,97550.45
2023-03-11T05:22:21.236Z,97549.97
2023-03-11T05:24:49.781Z,97546.60
2023-03-11T05:27:18.140Z,97546.64
2023-03-11T05:29:47.467Z,97545.27
2023-03-11T05:32:15.681Z,97541.69
2023-03-11T05:34:43.834Z,97551.02
2023-03-11T05:37:12.232Z,97547.81
2023-03-11T05:39:40.145Z,97549.14
2023-03-11T05:42:08.578Z,97546.89
2023-03-11T05:44:36.498Z,97545.54
2023-03-11T05:47:04.467Z,97539.41
2023-03-11T05:49:33.019Z,97542.84
2023-03-11T05:52:01.266Z,97543.41
2023-03-11T05:54:30.351Z,97542.30
2023-03-11T05:56:58.270Z,97542.95
2023-03-11T05:59:26.740Z,97548.83
2023-03-11T06:01:58.600Z,97543.80
2023-03-11T06:04:26.794Z,97548.17
2023-03-11T06:06:54.964Z,97546.59
2023-03-11T06:09:24.071Z,97551.02
2023-03-11T06:11:52.184Z,97553.17
2023-03-11T06:14:20.185Z,97558.16
2023-03-11T06:16:49.771Z,97560.49
2023-03-11T06:19:17.819Z,97564.33
2023-03-11T06:21:48.919Z,97562.98
2023-03-11T06:24:18.025Z,97567.46
2023-03-11T06:26:46.839Z,97571.77
2023-03-11T06:29:15.316Z,97574.60
2023-03-11T06:31:43.296Z,97574.30
2023-03-11T06:34:12.290Z,97573.73
2023-03-11T06:36:40.277Z,97581.23
2023-03-11T06:39:08.088Z,97580.77
2023-03-11T06:41:36.442Z,97584.77
2023-03-11T06:44:05.097Z,97586.66
2023-03-11T06:46:33.765Z,97587.42
2023-03-11T06:49:01.577Z,97590.45
2023-03-11T06:51:29.799Z,97593.27
2023-03-11T06:53:57.828Z,97588.55
2023-03-11T06:56:26.142Z,97590.52
2023-03-11T06:58:57.395Z,97594.14
2023-03-11T07:01:27.258Z,97598.77
2023-03-11T07:03:55.637Z,97602.56
2023-03-11T07:06:26.424Z,97604.55
2023-03-11T07:08:59.250Z,97605.20
2023-03-11T07:11:28.800Z,97605.33
2023-03-11T07:14:02.049Z,97604.80
2023-03-11T07:16:31.941Z,97606.91
2023-03-11T07:19:05.361Z,97612.73
2023-03-11T07:21:33.157Z,97611.65
2023-03-11T07:24:02.755Z,97614.49
2023-03-11T07:26:32.392Z,97616.27
2023-03-11T07:29:00.472Z,97618.05
2023-03-11T07:31:29.632Z,97622.52
2023-03-11T07:34:00.049Z,97624.03
2023-03-11T07:36:28.896Z,97623.01
2023-03-11T07:39:01.131Z,97620.71
2023-03-11T07:41:31.364Z,97623.73
2023-03-11T07:44:00.871Z,97622.35
2023-03-11T07:46:30.278Z,97628.02
2023-03-11T07:48:58.312Z,97631.85
2023-03-11T07:51:29.544Z,97632.44
2023-03-11T07:53:59.371Z,97635.02
2023-03-11T07:56:32.227Z,97636.97
2023-03-11T07:59:01.599Z,97639.30
2023-03-11T08:01:36.881Z,97637.05
2023-03-11T08:04:07.024Z,97640.21
2023-03-11T08:06:36.971Z,97638.59
2023-03-11T08:09:09.248Z,97639.23
2023-03-11T08:11:37.678Z,97641.09
2023-03-11T08:14:06.282Z,97649.98
2023-03-11T08:16:34.104Z,97653.38
2023-03-11T08:19:02.252Z,97656.15
2023-03-11T08:21:32.438Z,97655.16
2023-03-11T08:24:01.777Z,97654.19
2023-03-11T08:26:30.831Z,97654.72
2023-03-11T08:28:59.785Z,97663.71
2023-03-11T08:31:30.626Z,97673.46
2023-03-11T08:34:01.774Z,97673.58
2023-03-11T08:36:30.218Z,97675.35
2023-03-11T08:38:58.731Z,97681.33
2023-03-11T08:41:27.608Z,97679.88
2023-03-11T08:43:55.903Z,97686.18
2023-03-11T08:46:33.294Z,97694.52
2023-03-11T08:49:01.711Z,97698.66
2023-03-11T08:51:32.362Z,97700.17
2023-03-11T08:54:01.218Z,97706.94
2023-03-11T08:56:29.788Z,97709.58
2023-03-11T08:58:57.713Z,97713.90
2023-03-11T09:01:25.710Z,97716.41
2023-03-11T09:03:53.771Z,97714.22
2023-03-11T09:06:21.800Z,97721.83
2023-03-11T09:08:50.010Z,97727.48
2023-03-11T09:11:19.086Z,97730.27
2023-03-11T09:13:47.058Z,97730.41
2023-03-11T09:16:17.730Z,97730.60
2023-03-11T09:18:46.183Z,97733.42
2023-03-11T09:21:14.452Z,97734.71
2023-03-11T09:23:44.509Z,97739.78
2023-03-11T09:26:15.855Z,97739.98
2023-03-11T09:28:43.843Z,97749.22
2023-03-11T09:31:11.985Z,97755.66
2023-03-11T09:33:41.469Z,97756.39
2023-03-11T09:36:12.953Z,97759.36
2023-03-11T09:38:42.260Z,97769.30
2023-03-11T09:41:27.318Z,97774.93
2023-03-11T09:44:16.451Z,97783.77
2023-03-11T09:47:11.392Z,97791.44
2023-03-11T09:49:39.117Z,97798.72
2023-03-11T09:52:15.462Z,97803.41
2023-03-11T09:54:48.261Z,97809.70
2023-03-11T09:57:22.030Z,97816.95
2023-03-11T09:59:50.528Z,97824.45
2023-03-11T10:02:21.327Z,97833.71
2023-03-11T10:05:08.496Z,97837.17
2023-03-11T10:07:40.576Z,97847.09
2023-03-11T10:10:14.553Z,97855.02
2023-03-11T10:12:59.314Z,97865.01
2023-03-11T10:15:58.708Z,97867.14
2023-03-11T10:18:32.231Z,97876.34
2023-03-11T10:21:10.034Z,97885.48
2023-03-11T10:23:46.409Z,97893.02
2023-03-11T10:26:23.185Z,97898.41
2023-03-11T10:29:18.887Z,97909.02
2023-03-11T10:32:03.077Z,97913.03
2023-03-11T10:34:39.660Z,97921.45
2023-03-11T10:37:46.276Z,97919.56
2023-03-11T10:40:29.750Z,97930.93
2023-03-11T10:43:03.084Z,97938.69
2023-03-11T10:45:38.384Z,97950.51
2023-03-11T10:48:11.716Z,97959.45
2023-03-11T10:51:14.899Z,97966.52
2023-03-11T10:53:52.529Z,97975.77
2023-03-11T10:56:40.684Z,97982.93
2023-03-11T10:59:25.490Z,97986.41
2023-03-11T11:02:20.117Z,97988.05
2023-03-11T11:05:17.728Z,98005.95
2023-03-11T11:07:47.670Z,98007.39
2023-03-11T11:10:23.623Z,98017.58
2023-03-11T11:12:56.190Z,98024.22
2023-03-11T11:15:52.461Z,98030.27
2023-03-11T11:18:47.137Z,98042.64
2023-03-11T11:21:17.524Z,98052.42
2023-03-11T11:24:01.240Z,98054.46
2023-03-11T11:26:29.043Z,98060.76
2023-03-11T11:29:10.419Z,98070.27
2023-03-11T11:31:40.966Z,98078.61
2023-03-11T11:34:27.034Z,98085.16
2023-03-11T11:36:57.189Z,98088.64
2023-03-11T11:39:28.887Z,98096.73
2023-03-11T11:41:57.529Z,98102.08
2023-03-11T11:44:33.516Z,98108.05
2023-03-11T11:47:06.339Z,98116.15
2023-03-11T11:49:36.835Z,98124.42
2023-03-11T11:52:20.765Z,98129.73
2023-03-11T11:54:59.002Z,98137.56
2023-03-11T11:57:27.819Z,98149.27
2023-03-11T11:59:57.428Z,98153.65
2023-03-11T12:02:37.923Z,98157.34
2023-03-11T12:05:47.374Z,98159.42
2023-03-11T12:08:40.046Z,98171.27
2023-03-11T12:11:14.787Z,98172.73
2023-03-11T12:14:12.336Z,98186.73
2023-03-11T12:17:03.301Z,98188.05
2023-03-11T12:19:58.058Z,98201.77
2023-03-11T12:22:40.655Z,98209.20
2023-03-11T12:25:29.757Z,98221.08
2023-03-11T12:28:18.954Z,98227.40
2023-03-11T12:30:52.674Z,98233.45
2023-03-11T12:33:26.350Z,98232.59
2023-03-11T12:35:57.029Z,98251.77
2023-03-11T12:38:33.739Z,98254.14
2023-03-11T12:41:13.761Z,98260.60
2023-03-11T12:43:41.486Z,98269.98
2023-03-11T12:46:14.438Z,98276.52
2023-03-11T12:49:06.777Z,98281.80
2023-03-11T12:51:34.644Z,98290.73
2023-03-11T12:54:34.084Z,98293.75
2023-03-11T12:57:17.147Z,98301.70
2023-03-11T13:00:12.548Z,98317.33
2023-03-11T13:03:02.578Z,98321.08
2023-03-11T13:05:49.218Z,98325.66
2023-03-11T13:08:21.656Z,98336.55
2023-03-11T13:10:54.491Z,98330.84
2023-03-11T13:13:25.138Z,98344.83
2023-03-11T13:15:53.578Z,98361.36
2023-03-11T13:18:30.510Z,98369.98
2023-03-11T13:21:02.981Z,98375.05
2023-03-11T13:23:40.721Z,98390.59
2023-03-11T13:26:43.672Z,98388.42
2023-03-11T13:29:29.430Z,98400.29
2023-03-11T13:32:11.434Z,98408.57
2023-03-11T13:34:58.443Z,98420.19
2023-03-11T13:37:57.283Z,98422.70
2023-03-11T13:40:34.046Z,98434.52
2023-03-11T13:43:05.247Z,98446.39
2023-03-11T13:45:35.807Z,98446.08
2023-03-11T13:48:12.533Z,98460.13
2023-03-11T13:50:48.859Z,98461.61
2023-03-11T13:53:29.404Z,98474.71
2023-03-11T13:55:57.910Z,98481.86
2023-03-11T13:58:28.555Z,98488.75
2023-03-11T14:00:59.318Z,98495.90
2023-03-11T14:03:31.984Z,98500.55
2023-03-11T14:06:07.101Z,98511.17
2023-03-11T14:08:37.235Z,98518.20
2023-03-11T14:11:10.856Z,98520.23
2023-03-11T14:13:42.676Z,98525.11
2023-03-11T14:16:31.407Z,98528.76
2023-03-11T14:19:17.072Z,98547.12
2023-03-11T14:21:46.975Z,98557.90
2023-03-11T14:24:25.196Z,98560.84
2023-03-11T14:26:56.982Z,98569.25
2023-03-11T14:29:34.231Z,98579.09
2023-03-11T14:32:17.902Z,98586.75
2023-03-11T14:34:46.011Z,98590.86
2023-03-11T14:37:34.270Z,98596.98
2023-03-11T14:40:02.358Z,98606.13
2023-03-11T14:42:41.357Z,98617.42
2023-03-11T14:45:14.176Z,98619.63
2023-03-11T14:47:52.873Z,98630.70
2023-03-11T14:50:24.443Z,98640.02
2023-03-11T14:53:15.392Z,98633.72
2023-03-11T14:55:54.552Z,98648.66
2023-03-11T14:58:31.075Z,98657.05
2023-03-11T15:01:28.945Z,98652.70
2023-03-11T15:04:04.958Z,98661.71
2023-03-11T15:06:33.628Z,98670.16
2023-03-11T15:09:23.182Z,98674.14
2023-03-11T15:11:59.202Z,98679.88
2023-03-11T15:14:35.278Z,98684.11
2023-03-11T15:17:35.235Z,98687.67
2023-03-11T15:20:07.989Z,98695.60
2023-03-11T15:22:39.782Z,98703.21
2023-03-11T15:25:19.286Z,98705.86
2023-03-11T15:27:47.146Z,98713.73
2023-03-11T15:30:21.437Z,98722.52
2023-03-11T15:32:50.050Z,98720.61
2023-03-11T15:35:26.862Z,98734.27
2023-03-11T15:38:21.274Z,98738.52
2023-03-11T15:41:01.191Z,98748.27
2023-03-11T15:43:32.731Z,98751.98
2023-03-11T15:46:03.082Z,98761.11
2023-03-11T15:48:31.385Z,98764.20
2023-03-11T15:51:00.758Z,98768.11
2023-03-11T15:53:30.378Z,98776.42
2023-03-11T15:56:08.276Z,98778.75
2023-03-11T15:58:38.143Z,98786.70
2023-03-11T16:01:06.060Z,98793.41
2023-03-11T16:03:33.831Z,98796.53
2023-03-11T16:06:01.558Z,98805.20
2023-03-11T16:08:29.257Z,98808.05
2023-03-11T16:10:58.048Z,98810.02
2023-03-11T16:13:25.934Z,98815.67
2023-03-11T16:15:53.689Z,98822.73
2023-03-11T16:18:21.420Z,98829.21
2023-03-11T16:20:52.546Z,98834.09
2023-03-11T16:23:22.136Z,98847.80
2023-03-11T16:25:50.518Z,98853.70
2023-03-11T16:28:18.845Z,98867.02
2023-03-11T16:30:49.532Z,98879.55
2023-03-11T16:33:17.378Z,98884.54
2023-03-11T16:35:45.848Z,98884.71
2023-03-11T16:38:14.286Z,98897.73
2023-03-11T16:40:42.275Z,98903.50
2023-03-11T16:43:13.634Z,98905.22
2023-03-11T16:45:41.532Z,98909.79
2023-03-11T16:48:09.410Z,98912.21
2023-03-11T16:50:37.769Z,98916.30
2023-03-11T16:53:05.700Z,98919.76
2023-03-11T16:55:33.455Z,98931.04
2023-03-11T16:58:01.387Z,98935.27
2023-03-11T17:00:29.526Z,98941.42
2023-03-11T17:02:57.358Z,98952.39
2023-03-11T17:05:25.357Z,98962.40
2023-03-11T17:07:57.152Z,98965.08
2023-03-11T17:10:25.046Z,98973.08
2023-03-11T17:12:52.767Z,98976.81
2023-03-11T17:15:20.775Z,98978.82
2023-03-11T17:17:48.534Z,98988.61
2023-03-11T17:20:16.495Z,98990.70
2023-03-11T17:22:44.449Z,98995.36
2023-03-11T17:25:12.409Z,99001.91
2023-03-11T17:27:40.214Z,99004.55
2023-03-11T17:30:08.656Z,99008.55
2023-03-11T17:32:36.434Z,99011.54
2023-03-11T17:35:05.140Z,99011.90
2023-03-11T17:37:33.293Z,99017.54
2023-03-11T17:40:01.018Z,99018.21
2023-03-11T17:42:28.746Z,99024.63
2023-03-11T17:44:57.076Z,99027.25
2023-03-11T17:47:27.812Z,99033.63
2023-03-11T17:49:55.630Z,99037.45
2023-03-11T17:52:23.504Z,99042.19
2023-03-11T17:54:53.456Z,99048.13
2023-03-11T17:57:21.331Z,99050.73
2023-03-11T17:59:52.743Z,99051.62
2023-03-11T18:02:21.130Z,99057.34
2023-03-11T18:04:53.854Z,99063.20
2023-03-11T18:07:23.784Z,99061.92
2023-03-11T18:09:53.017Z,99071.01
2023-03-11T18:12:21.931Z,99074.41
2023-03-11T18:14:49.768Z,99074.88
2023-03-11T18:17:18.645Z,99082.12
2023-03-11T18:19:46.466Z,99090.25
2023-03-11T18:22:15.514Z,99095.83
2023-03-11T18:24:43.293Z,99099.00
2023-03-11T18:27:11.013Z,99099.90
2023-03-11T18:29:38.799Z,99105.88
2023-03-11T18:32:06.566Z,99110.59
2023-03-11T18:34:34.552Z,99116.21
2023-03-11T18:37:02.535Z,99119.65
2023-03-11T18:39:30.395Z,99125.35
2023-03-11T18:41:58.222Z,99129.91
2023-03-11T18:44:26.234Z,99132.75
2023-03-11T18:46:54.069Z,99141.90
2023-03-11T18:49:21.800Z,99146.16
2023-03-11T18:51:49.551Z,99152.52
2023-03-11T18:54:17.379Z,99152.23
2023-03-11T18:56:45.311Z,99156.98
2023-03-11T18:59:14.539Z,99165.98
2023-03-11T19:01:42.524Z,99172.70
2023-03-11T19:04:10.478Z,99176.80
2023-03-11T19:06:38.465Z,99179.11
2023-03-11T19:09:06.739Z,99180.71
2023-03-11T19:11:34.542Z,99181.39
2023-03-11T19:14:02.419Z,99186.92
2023-03-11T19:16:30.316Z,99190.66
2023-03-11T19:18:58.266Z,99197.33
2023-03-11T19:21:26.216Z,99203.86
2023-03-11T19:23:55.393Z,99206.38
2023-03-11T19:26:41.493Z,99215.13
2023-03-11T19:29:11.410Z,99219.36
2023-03-11T19:31:39.369Z,99229.77
2023-03-11T19:34:07.257Z,99230.88
2023-03-11T19:36:35.241Z,99236.63
2023-03-11T19:39:03.524Z,99239.59
2023-03-11T19:41:31.311Z,99245.73
2023-03-11T19:43:59.220Z,99247.52
2023-03-11T19:46:27.636Z,99248.73
2023-03-11T19:48:58.884Z,99251.70
2023-03-11T19:51:32.917Z,99257.27
2023-03-11T19:54:06.948Z,99261.39
2023-03-11T19:56:34.733Z,99269.83
2023-03-11T19:59:02.615Z,99267.11
2023-03-11T20:01:31.728Z,99270.57
2023-03-11T20:03:59.594Z,99277.16
2023-03-11T20:06:27.437Z,99281.63
2023-03-11T20:08:55.194Z,99282.33
2023-03-11T20:11:23.052Z,99284.33
2023-03-11T20:13:50.799Z,99280.63
2023-03-11T20:16:19.497Z,99283.63
2023-03-11T20:18:51.511Z,99290.52
2023-03-11T20:21:19.521Z,99289.81
2023-03-11T20:23:49.130Z,99293.86
2023-03-11T20:26:18.573Z,99298.50
2023-03-11T20:28:46.606Z,99300.64
2023-03-11T20:31:17.660Z,99302.98
2023-03-11T20:33:46.333Z,99309.27
2023-03-11T20:36:18.850Z,99311.39
2023-03-11T20:38:52.055Z,99309.80
2023-03-11T20:41:20.282Z,99308.54
2023-03-11T20:43:48.066Z,99307.58
2023-03-11T20:46:15.911Z,99309.41
2023-03-11T20:48:43.782Z,99310.27
2023-03-11T20:51:19.482Z,99313.43
2023-03-11T20:53:48.902Z,99317.42
2023-03-11T20:56:19.931Z,99324.94
2023-03-11T20:58:51.417Z,99322.24
2023-03-11T21:01:21.080Z,99323.67
2023-03-11T21:03:49.228Z,99331.02
2023-03-11T21:06:23.267Z,99330.75
2023-03-11T21:08:53.938Z,99331.86
2023-03-11T21:11:22.939Z,99333.53
2023-03-11T21:13:51.616Z,99337.11
2023-03-11T21:16:20.555Z,99340.76
2023-03-11T21:18:49.583Z,99338.61
2023-03-11T21:21:18.604Z,99342.48
2023-03-11T21:23:48.028Z,99348.05
2023-03-11T21:26:17.324Z,99350.02
2023-03-11T21:28:46.762Z,99352.77
2023-03-11T21:31:22.568Z,99350.98
2023-03-11T21:33:55.947Z,99353.27
2023-03-11T21:36:24.104Z,99353.46
2023-03-11T21:38:52.075Z,99357.00
2023-03-11T21:41:25.138Z,99356.20
2023-03-11T21:43:55.085Z,99357.78
2023-03-11T21:46:26.249Z,99363.99
2023-03-11T21:48:54.465Z,99359.52
2023-03-11T21:51:22.432Z,99364.00
2023-03-11T21:53:50.646Z,99365.16
2023-03-11T21:56:18.777Z,99364.20
2023-03-11T21:58:46.866Z,99364.19
2023-03-11T22:01:14.953Z,99365.96
2023-03-11T22:03:43.969Z,99369.68
2023-03-11T22:06:13.135Z,99368.77
2023-03-11T22:08:42.448Z,99373.45
2023-03-11T22:11:17.452Z,99374.70
2023-03-11T22:13:46.945Z,99372.20
2023-03-11T22:16:15.245Z,99373.08
2023-03-11T22:18:43.771Z,99378.56
2023-03-11T22:21:12.096Z,99378.00
2023-03-11T22:23:39.936Z,99383.52
2023-03-11T22:26:08.363Z,99384.74
2023-03-11T22:28:36.830Z,99387.90
2023-03-11T22:31:12.601Z,99391.66
2023-03-11T22:33:40.784Z,99393.52
2023-03-11T22:36:09.413Z,99399.52
2023-03-11T22:38:38.486Z,99399.93
2023-03-11T22:41:07.890Z,99399.63
2023-03-11T22:43:36.825Z,99402.27
2023-03-11T22:46:06.158Z,99402.67
2023-03-11T22:48:34.528Z,99406.48
2023-03-11T22:51:02.777Z,99404.88
2023-03-11T22:53:30.564Z,99408.39
2023-03-11T22:55:58.457Z,99405.11
2023-03-11T22:58:26.196Z,99412.08
2023-03-11T23:00:54.080Z,99414.58
2023-03-11T23:03:21.824Z,99417.12
2023-03-11T23:05:49.569Z,99416.98
2023-03-11T23:08:17.867Z,99415.35
2023-03-11T23:10:47.344Z,99417.47
2023-03-11T23:13:15.891Z,99418.54
2023-03-11T23:15:45.435Z,99422.92
2023-03-11T23:18:15.507Z,99421.15
2023-03-11T23:20:44.323Z,99425.77
2023-03-11T23:23:12.901Z,99426.94
2023-03-11T23:25:41.547Z,99424.48
2023-03-11T23:28:09.321Z,99426.38
2023-03-11T23:30:37.103Z,99423.17
2023-03-11T23:33:04.998Z,99425.14
2023-03-11T23:35:33.333Z,99426.84
2023-03-11T23:38:01.203Z,99431.84
2023-03-11T23:40:29.109Z,99432.21
2023-03-11T23:42:57.000Z,99436.89
2023-03-11T23:45:24.723Z,99434.80
2023-03-11T23:47:52.769Z,99436.73
2023-03-11T23:50:20.529Z,99439.73
2023-03-11T23:52:48.259Z,99441.70
2023-03-11T23:55:16.089Z,99441.56
2023-03-11T23:57:43.840Z,99448.67
